Time;durP1;ratioP1;P1;durP2;ratioP2;P2;SDS_P1;SDS_P2;PMS_P1;PMS_P2;Temp;Humidity;BMP_temperature;BMP_pressure;BME280_temperature;BME280_humidity;BME280_pressure;Samples;Min_cycle;Max_cycle;Signal;HPM_P1;HPM_P2
2023/03/02 00:02:10;;;;;;;0.77;0.50;;;18.20;38.60;;;;;;4831864;29;20282;-84
2023/03/02 00:04:44;;;;;;;1.25;0.52;;;18.20;38.70;;;;;;4862453;29;20267;-84
2023/03/02 00:07:18;;;;;;;1.55;0.52;;;18.20;38.70;;;;;;4847581;29;20204;-84
2023/03/02 00:10:00;;;;;;;1.05;0.30;;;18.20;38.70;;;;;;4833109;29;20271;-83
2023/03/02 00:12:27;;;;;;;0.95;0.50;;;18.20;38.70;;;;;;4862759;29;20247;-83
2023/03/02 00:14:55;;;;;;;0.60;0.50;;;18.20;38.70;;;;;;4831390;29;20291;-83
2023/03/02 00:17:26;;;;;;;0.82;0.50;;;18.20;38.70;;;;;;4831435;29;20189;-83
2023/03/02 00:20:10;;;;;;;0.65;0.63;;;18.20;38.70;;;;;;4861529;29;20186;-84
2023/03/02 00:22:37;;;;;;;1.50;0.50;;;18.20;38.70;;;;;;4846784;29;20278;-83
2023/03/02 00:25:14;;;;;;;0.98;0.50;;;18.10;38.80;;;;;;4862365;29;20193;-83
2023/03/02 00:27:46;;;;;;;1.30;0.60;;;18.10;38.80;;;;;;4864864;29;20274;-84
2023/03/02 00:30:16;;;;;;;0.52;0.40;;;18.20;39.50;;;;;;4865186;29;20247;-83
2023/03/02 00:32:44;;;;;;;1.55;0.40;;;18.10;38.80;;;;;;4850352;29;20220;-84
2023/03/02 00:35:19;;;;;;;0.45;0.35;;;18.10;38.80;;;;;;4862205;29;20230;-83
2023/03/02 00:37:56;;;;;;;0.68;0.40;;;18.20;38.90;;;;;;4837860;29;20184;-83
2023/03/02 00:40:24;;;;;;;1.20;0.30;;;18.10;38.80;;;;;;4856036;29;20208;-83
2023/03/02 00:42:52;;;;;;;0.28;0.28;;;18.10;38.80;;;;;;4847031;29;20280;-83
2023/03/02 00:45:37;;;;;;;0.45;0.45;;;18.20;38.90;;;;;;4831769;29;20203;-83
2023/03/02 00:48:06;;;;;;;2.00;0.50;;;18.10;38.80;;;;;;4862221;29;20220;-84
2023/03/02 00:50:39;;;;;;;2.78;0.52;;;18.10;38.90;;;;;;4880309;29;20596;-84
2023/03/02 00:53:09;;;;;;;0.35;0.30;;;18.10;38.80;;;;;;4846802;29;20221;-84
2023/03/02 00:55:42;;;;;;;0.60;0.35;;;18.10;38.80;;;;;;4843522;29;20572;-84
2023/03/02 00:58:11;;;;;;;1.10;0.40;;;18.10;38.90;;;;;;4833154;29;20214;-83
2023/03/02 01:00:40;;;;;;;0.55;0.40;;;18.10;38.90;;;;;;4792687;29;20281;-84
2023/03/02 01:03:09;;;;;;;0.90;0.40;;;18.10;38.90;;;;;;4789502;30;20191;-84
2023/03/02 01:05:40;;;;;;;0.98;0.47;;;18.10;38.90;;;;;;4769826;30;20206;-84
2023/03/02 01:08:24;;;;;;;0.63;0.32;;;18.10;38.90;;;;;;4741762;30;20223;-84
2023/03/02 01:11:00;;;;;;;0.60;0.40;;;18.10;39.00;;;;;;4757174;30;20675;-84
2023/03/02 01:13:31;;;;;;;0.57;0.50;;;18.10;38.90;;;;;;4757540;30;20213;-84
2023/03/02 01:16:04;;;;;;;0.40;0.40;;;18.10;39.00;;;;;;4772702;30;20224;-83
2023/03/02 01:18:37;;;;;;;0.90;0.50;;;18.10;39.00;;;;;;4751123;30;20183;-84
2023/03/02 01:21:11;;;;;;;1.25;0.50;;;18.10;39.00;;;;;;4787939;29;20195;-84
2023/03/02 01:23:54;;;;;;;0.38;0.38;;;18.10;39.00;;;;;;4775602;29;20302;-83
2023/03/02 01:26:28;;;;;;;0.30;0.30;;;18.10;39.00;;;;;;4782013;29;20203;-83
2023/03/02 01:28:55;;;;;;;0.80;0.50;;;18.10;39.10;;;;;;4789775;29;20218;-83
2023/03/02 01:31:26;;;;;;;0.60;0.30;;;18.10;39.10;;;;;;4829491;29;20225;-83
2023/03/02 01:33:55;;;;;;;1.52;0.50;;;18.00;39.00;;;;;;4814113;29;20185;-83
2023/03/02 01:36:33;;;;;;;0.95;0.50;;;18.10;39.10;;;;;;4809352;29;20591;-83
2023/03/02 01:38:59;;;;;;;1.00;0.57;;;18.00;39.00;;;;;;4835992;29;20195;-83
2023/03/02 01:41:30;;;;;;;0.95;0.40;;;18.00;39.00;;;;;;4850651;29;20196;-84
2023/03/02 01:44:32;;;;;;;0.95;0.65;;;18.10;39.10;;;;;;4851376;29;20177;-83
2023/03/02 01:47:24;;;;;;;1.58;0.32;;;18.10;39.10;;;;;;4860017;29;20195;-83
2023/03/02 01:50:22;;;;;;;0.65;0.40;;;18.00;39.10;;;;;;4884668;29;20218;-83
2023/03/02 01:52:48;;;;;;;0.70;0.32;;;18.00;39.10;;;;;;4842879;29;20215;-83
2023/03/02 01:55:21;;;;;;;1.38;0.40;;;18.00;39.10;;;;;;4884247;29;20668;-84
2023/03/02 01:57:53;;;;;;;0.50;0.40;;;18.00;39.10;;;;;;4793549;29;20187;-84
2023/03/02 02:00:26;;;;;;;1.25;0.50;;;18.10;39.10;;;;;;4774494;29;20199;-84
2023/03/02 02:03:07;;;;;;;0.52;0.40;;;18.10;39.10;;;;;;4760842;30;20192;-84
2023/03/02 02:06:11;;;;;;;0.50;0.40;;;18.00;39.10;;;;;;4761710;30;20196;-84
2023/03/02 02:08:53;;;;;;;0.93;0.30;;;18.00;39.20;;;;;;4762772;30;20199;-84
2023/03/02 02:11:28;;;;;;;1.02;0.55;;;18.00;39.20;;;;;;4760890;30;20224;-83
2023/03/02 02:14:00;;;;;;;0.68;0.30;;;18.00;39.20;;;;;;4759271;30;20196;-83
2023/03/02 02:16:38;;;;;;;2.47;0.47;;;18.00;39.20;;;;;;4780485;29;20214;-83
2023/03/02 02:19:27;;;;;;;0.95;0.43;;;18.00;39.20;;;;;;4795525;29;20210;-84
2023/03/02 02:21:57;;;;;;;0.50;0.40;;;18.00;39.20;;;;;;4796652;29;20190;-84
2023/03/02 02:24:36;;;;;;;2.25;0.40;;;18.00;39.20;;;;;;4795123;29;20564;-84
2023/03/02 02:27:28;;;;;;;0.50;0.40;;;18.00;39.20;;;;;;4794738;29;20191;-84
2023/03/02 02:29:55;;;;;;;0.50;0.50;;;18.00;39.20;;;;;;4816752;29;20274;-84
2023/03/02 02:32:31;;;;;;;1.67;0.32;;;18.00;39.20;;;;;;4818384;29;20232;-84
2023/03/02 02:35:16;;;;;;;0.57;0.40;;;18.00;39.20;;;;;;4846488;29;20270;-84
2023/03/02 02:37:50;;;;;;;1.42;0.40;;;18.00;39.20;;;;;;4840537;29;20293;-84
2023/03/02 02:40:38;;;;;;;0.88;0.40;;;18.00;39.20;;;;;;4883708;29;20262;-83
2023/03/02 02:43:10;;;;;;;1.95;0.77;;;18.00;39.20;;;;;;4836668;29;20201;-83
2023/03/02 02:45:41;;;;;;;1.90;0.50;;;18.00;39.30;;;;;;4819321;29;20189;-84
2023/03/02 02:48:14;;;;;;;1.38;0.40;;;18.00;39.30;;;;;;4849085;29;20188;-84
2023/03/02 02:50:59;;;;;;;0.40;0.40;;;18.00;39.30;;;;;;4823897;29;20280;-84
2023/03/02 02:53:37;;;;;;;1.48;0.65;;;18.00;39.30;;;;;;4831574;29;20225;-84
2023/03/02 02:56:03;;;;;;;1.45;0.38;;;18.00;39.70;;;;;;4831288;29;20246;-84
2023/03/02 02:58:43;;;;;;;0.73;0.43;;;18.00;39.30;;;;;;4801030;29;20265;-84
2023/03/02 03:01:16;;;;;;;0.70;0.40;;;18.00;39.30;;;;;;4817293;29;20233;-84
2023/03/02 03:03:50;;;;;;;0.40;0.30;;;18.00;39.30;;;;;;4792166;30;20657;-83
2023/03/02 03:06:19;;;;;;;1.15;0.38;;;17.90;39.30;;;;;;4779820;30;20792;-84
2023/03/02 03:08:56;;;;;;;1.20;0.43;;;18.00;39.40;;;;;;4773871;30;20303;-84
2023/03/02 03:11:34;;;;;;;0.57;0.38;;;18.00;39.40;;;;;;4726686;30;20226;-83
2023/03/02 03:14:16;;;;;;;1.83;0.32;;;18.00;39.40;;;;;;4740984;30;20188;-83
2023/03/02 03:16:52;;;;;;;0.40;0.30;;;17.90;39.40;;;;;;4740974;30;20210;-83
2023/03/02 03:19:31;;;;;;;0.93;0.40;;;17.90;39.40;;;;;;4741702;30;20192;-83
2023/03/02 03:22:02;;;;;;;0.80;0.40;;;17.80;39.30;;;;;;4770034;30;20192;-83
2023/03/02 03:24:35;;;;;;;1.20;0.38;;;18.00;39.50;;;;;;4726389;30;20189;-83
2023/03/02 03:27:20;;;;;;;0.57;0.40;;;18.00;39.50;;;;;;4727380;30;20298;-83
2023/03/02 03:29:57;;;;;;;0.75;0.40;;;17.90;39.40;;;;;;4733003;30;20298;-83
2023/03/02 03:32:36;;;;;;;0.43;0.40;;;17.90;39.40;;;;;;4738669;30;20193;-83
2023/03/02 03:35:15;;;;;;;0.82;0.43;;;17.90;39.50;;;;;;4726814;30;20290;-83
2023/03/02 03:37:56;;;;;;;0.30;0.30;;;17.90;39.50;;;;;;4737861;30;20233;-83
2023/03/02 03:40:27;;;;;;;1.08;0.40;;;17.90;39.50;;;;;;4751311;30;20319;-84
2023/03/02 03:42:56;;;;;;;0.38;0.30;;;17.90;39.60;;;;;;4740915;30;20204;-83
2023/03/02 03:45:25;;;;;;;0.50;0.50;;;17.80;39.50;;;;;;4740975;30;20204;-84
2023/03/02 03:47:59;;;;;;;0.52;0.40;;;17.80;39.50;;;;;;4741028;30;20200;-83
2023/03/02 03:50:33;;;;;;;0.60;0.52;;;17.90;39.50;;;;;;4755554;30;20215;-84
2023/03/02 03:52:58;;;;;;;0.57;0.40;;;17.80;39.50;;;;;;4741267;30;20236;-83
2023/03/02 03:55:27;;;;;;;0.90;0.50;;;17.80;39.50;;;;;;4752557;30;20204;-84
2023/03/02 03:57:56;;;;;;;0.88;0.52;;;17.90;39.50;;;;;;4723412;30;20190;-83
2023/03/02 04:00:41;;;;;;;0.50;0.40;;;17.80;39.50;;;;;;4729568;30;20197;-83
2023/03/02 04:03:20;;;;;;;1.17;0.60;;;17.90;39.60;;;;;;4740149;30;20192;-83
2023/03/02 04:06:00;;;;;;;0.75;0.43;;;17.80;39.50;;;;;;4747999;30;20222;-83
2023/03/02 04:08:39;;;;;;;1.05;0.30;;;17.80;39.50;;;;;;4789555;29;20194;-83
2023/03/02 04:11:09;;;;;;;0.65;0.45;;;17.80;39.50;;;;;;4799379;29;20252;-83
2023/03/02 04:13:44;;;;;;;0.52;0.30;;;17.80;39.60;;;;;;4823989;29;20183;-83
2023/03/02 04:16:20;;;;;;;0.50;0.40;;;17.90;39.50;;;;;;4809096;29;20190;-83
2023/03/02 04:18:51;;;;;;;0.80;0.40;;;17.80;39.50;;;;;;4809284;29;20613;-83
2023/03/02 04:21:20;;;;;;;0.50;0.40;;;17.90;39.70;;;;;;4808793;29;20190;-83
2023/03/02 04:23:56;;;;;;;0.82;0.40;;;17.80;39.60;;;;;;4808067;29;20340;-84
2023/03/02 04:26:29;;;;;;;0.55;0.40;;;17.80;39.70;;;;;;4811629;29;20736;-84
2023/03/02 04:29:00;;;;;;;0.60;0.30;;;17.80;39.70;;;;;;4826722;29;20283;-84
2023/03/02 04:31:36;;;;;;;1.17;0.30;;;17.80;39.70;;;;;;4826825;29;20229;-83
2023/03/02 04:34:28;;;;;;;;;;;;;;;;;;;;;
2023/03/02 04:36:54;;;;;;;0.25;0.25;;;17.80;39.60;;;;;;4832812;29;20267;-84
2023/03/02 04:39:27;;;;;;;0.43;0.40;;;17.80;39.70;;;;;;4834413;29;20238;-83
2023/03/02 04:41:55;;;;;;;0.65;0.30;;;17.80;39.60;;;;;;4831084;29;20257;-84
2023/03/02 04:44:23;;;;;;;0.50;0.50;;;17.80;39.60;;;;;;4815662;29;20640;-84
2023/03/02 04:46:53;;;;;;;0.40;0.40;;;17.80;39.60;;;;;;4815945;29;20192;-84
2023/03/02 04:49:24;;;;;;;0.73;0.38;;;17.80;40.40;;;;;;4799516;29;20708;-83
2023/03/02 04:51:50;;;;;;;0.50;0.40;;;17.70;39.70;;;;;;4830457;29;20221;-83
2023/03/02 04:54:30;;;;;;;0.32;0.32;;;17.80;39.70;;;;;;4830764;29;20306;-83
2023/03/02 04:56:58;;;;;;;0.45;0.40;;;17.80;39.60;;;;;;4846070;29;20272;-83
2023/03/02 04:59:26;;;;;;;0.60;0.40;;;17.80;39.70;;;;;;4815359;29;20704;-83
2023/03/02 05:01:53;;;;;;;0.47;0.30;;;17.80;39.80;;;;;;4845320;29;20196;-83
2023/03/02 05:04:29;;;;;;;0.70;0.40;;;17.80;39.70;;;;;;4838586;29;20196;-83
2023/03/02 05:06:57;;;;;;;0.95;0.50;;;17.80;39.80;;;;;;4853056;29;20223;-83
2023/03/02 05:09:29;;;;;;;0.60;0.38;;;17.80;39.80;;;;;;4867010;29;20287;-84
2023/03/02 05:11:57;;;;;;;0.93;0.40;;;17.80;39.80;;;;;;4864060;29;20247;-83
2023/03/02 05:14:24;;;;;;;0.45;0.38;;;17.80;39.80;;;;;;4845448;29;20189;-83
2023/03/02 05:16:59;;;;;;;0.68;0.40;;;17.80;39.80;;;;;;4807400;29;20273;-83
2023/03/02 05:23:09;;;;;;;0.68;0.50;;;17.80;39.80;;;;;;4817609;29;20177;-83
2023/03/02 05:25:50;;;;;;;0.95;0.50;;;17.70;39.80;;;;;;4790072;30;20254;-83
2023/03/02 05:28:26;;;;;;;0.50;0.30;;;17.70;39.80;;;;;;4775607;30;20192;-83
2023/03/02 05:30:53;;;;;;;0.98;0.50;;;17.70;39.80;;;;;;4775619;30;20223;-83
2023/03/02 05:33:24;;;;;;;0.40;0.30;;;17.70;39.90;;;;;;4775128;30;20198;-83
2023/03/02 05:35:52;;;;;;;1.30;0.55;;;17.70;39.80;;;;;;4775178;30;20644;-83
2023/03/02 05:38:26;;;;;;;0.40;0.40;;;17.70;39.80;;;;;;4760442;30;20194;-84
2023/03/02 05:40:54;;;;;;;0.93;0.32;;;17.70;39.80;;;;;;4760933;30;20210;-83
2023/03/02 05:43:23;;;;;;;0.52;0.40;;;17.80;39.90;;;;;;4760488;30;20196;-83
2023/03/02 05:45:59;;;;;;;0.73;0.40;;;17.70;39.80;;;;;;4784776;29;20242;-83
2023/03/02 05:48:29;;;;;;;1.05;0.50;;;17.70;39.80;;;;;;4797960;29;20217;-83
2023/03/02 05:51:14;;;;;;;0.38;0.30;;;17.70;39.80;;;;;;4825897;29;20306;-84
2023/03/02 05:53:53;;;;;;;0.63;0.40;;;17.70;39.90;;;;;;4812194;29;20236;-83
2023/03/02 05:56:24;;;;;;;0.50;0.40;;;17.70;39.80;;;;;;4848682;29;20544;-84
2023/03/02 05:58:51;;;;;;;0.50;0.40;;;17.70;39.80;;;;;;4845120;29;20246;-83
2023/03/02 06:01:22;;;;;;;1.75;0.40;;;17.70;39.80;;;;;;4845116;29;20196;-83
2023/03/02 06:04:00;;;;;;;0.65;0.50;;;17.70;40.50;;;;;;4863815;29;20679;-84
2023/03/02 06:06:37;;;;;;;0.50;0.30;;;17.70;39.80;;;;;;4863682;29;20298;-83
2023/03/02 06:09:11;;;;;;;0.65;0.40;;;17.70;39.90;;;;;;4848100;29;20190;-83
2023/03/02 06:11:49;;;;;;;0.40;0.30;;;17.70;39.80;;;;;;4847815;29;20244;-82
2023/03/02 06:14:20;;;;;;;0.70;0.40;;;17.70;39.90;;;;;;4847509;29;20181;-82
2023/03/02 06:16:49;;;;;;;0.68;0.50;;;17.80;39.90;;;;;;4843010;29;20190;-83
2023/03/02 06:19:21;;;;;;;0.50;0.45;;;17.70;39.80;;;;;;4831958;29;20229;-82
2023/03/02 06:21:46;;;;;;;0.50;0.40;;;17.70;39.90;;;;;;4808271;29;20193;-83
2023/03/02 06:24:12;;;;;;;0.30;0.30;;;17.70;39.80;;;;;;4832180;29;20189;-83
2023/03/02 06:26:38;;;;;;;0.40;0.30;;;17.70;39.80;;;;;;4831090;29;20185;-82
2023/03/02 06:29:04;;;;;;;0.40;0.40;;;17.70;39.80;;;;;;4830870;29;20249;-83
2023/03/02 06:31:33;;;;;;;1.08;0.43;;;17.70;39.80;;;;;;4830370;29;20224;-83
2023/03/02 06:33:59;;;;;;;0.88;0.35;;;17.70;40.00;;;;;;4830580;29;20217;-83
2023/03/02 06:36:25;;;;;;;1.40;0.30;;;17.70;40.00;;;;;;4845225;29;20275;-83
2023/03/02 06:38:50;;;;;;;0.25;0.25;;;17.70;39.90;;;;;;4830078;29;20180;-83
2023/03/02 06:41:17;;;;;;;1.00;0.40;;;17.70;39.90;;;;;;4829992;29;20343;-83
2023/03/02 06:43:47;;;;;;;2.58;0.80;;;17.70;39.90;;;;;;4829982;29;20694;-82
2023/03/02 06:46:19;;;;;;;2.92;0.40;;;17.70;39.90;;;;;;4845059;29;20218;-83
2023/03/02 06:48:46;;;;;;;0.60;0.30;;;17.70;39.90;;;;;;4863577;29;20188;-84
2023/03/02 06:51:12;;;;;;;0.55;0.40;;;17.70;39.90;;;;;;4851511;29;20192;-84
2023/03/02 06:53:42;;;;;;;0.98;0.40;;;17.80;39.90;;;;;;4855713;29;20350;-83
2023/03/02 06:56:10;;;;;;;1.85;0.70;;;17.80;39.80;;;;;;4905591;29;20637;-84
2023/03/02 06:58:38;;;;;;;0.70;0.30;;;17.80;39.80;;;;;;4889171;29;20638;-84
2023/03/02 07:01:03;;;;;;;0.40;0.40;;;17.80;39.90;;;;;;4889914;29;20305;-83
2023/03/02 07:03:35;;;;;;;0.82;0.47;;;17.70;39.80;;;;;;4905394;29;20202;-84
2023/03/02 07:06:02;;;;;;;0.40;0.30;;;17.80;39.80;;;;;;4904966;29;20257;-84
2023/03/02 07:08:29;;;;;;;0.38;0.20;;;17.80;39.80;;;;;;4905577;29;20198;-83
2023/03/02 07:10:56;;;;;;;0.30;0.30;;;17.70;39.90;;;;;;4891546;29;20195;-84
2023/03/02 07:13:25;;;;;;;0.38;0.30;;;17.80;39.90;;;;;;4893296;29;20167;-83
2023/03/02 07:15:51;;;;;;;0.68;0.50;;;17.80;39.80;;;;;;4893329;29;20171;-83
2023/03/02 07:18:16;;;;;;;1.67;0.40;;;17.80;39.80;;;;;;4894380;29;20275;-84
2023/03/02 07:20:42;;;;;;;0.52;0.47;;;17.80;39.80;;;;;;4910282;29;20198;-84
2023/03/02 07:23:14;;;;;;;0.40;0.32;;;17.80;39.80;;;;;;4894129;29;20266;-83
2023/03/02 07:25:41;;;;;;;0.60;0.40;;;17.80;39.70;;;;;;4907087;29;20181;-83
2023/03/02 07:28:09;;;;;;;1.25;0.50;;;17.80;39.80;;;;;;4906378;29;20195;-84
2023/03/02 07:30:35;;;;;;;0.45;0.40;;;17.90;39.70;;;;;;4906311;29;20202;-83
2023/03/02 07:33:03;;;;;;;2.28;0.50;;;17.90;39.70;;;;;;4891603;29;20163;-84
2023/03/02 07:35:29;;;;;;;0.43;0.30;;;17.90;39.70;;;;;;4906997;29;20163;-83
2023/03/02 07:37:59;;;;;;;0.30;0.28;;;17.90;39.60;;;;;;4890902;29;20175;-84
2023/03/02 07:40:25;;;;;;;0.70;0.30;;;18.00;39.60;;;;;;4921652;29;20163;-84
2023/03/02 07:42:51;;;;;;;0.73;0.40;;;18.00;39.50;;;;;;4889735;29;20181;-84
2023/03/02 07:45:19;;;;;;;0.65;0.20;;;18.10;39.40;;;;;;4905225;29;20175;-84
2023/03/02 07:47:45;;;;;;;0.52;0.40;;;18.20;39.20;;;;;;4890167;29;20178;-84
2023/03/02 07:50:11;;;;;;;1.20;0.40;;;18.20;39.10;;;;;;4890621;29;20268;-84
2023/03/02 07:52:36;;;;;;;0.50;0.30;;;18.20;39.10;;;;;;4890748;29;20311;-84
2023/03/02 07:55:02;;;;;;;0.35;0.35;;;18.20;39.70;;;;;;4906860;29;20218;-84
2023/03/02 07:57:39;;;;;;;0.93;0.40;;;18.20;39.00;;;;;;4922070;29;20155;-84
2023/03/02 08:00:09;;;;;;;0.35;0.30;;;18.20;39.00;;;;;;4905552;29;20189;-83
2023/03/02 08:02:36;;;;;;;0.93;0.50;;;18.30;39.00;;;;;;4919782;29;20189;-84
2023/03/02 08:05:04;;;;;;;0.35;0.20;;;18.30;39.00;;;;;;4905186;29;20163;-84
2023/03/02 08:07:30;;;;;;;0.55;0.40;;;18.30;38.90;;;;;;4889771;29;20261;-84
2023/03/02 08:09:57;;;;;;;0.30;0.30;;;18.40;38.80;;;;;;4904555;29;20201;-84
2023/03/02 08:12:24;;;;;;;0.20;0.20;;;18.30;38.90;;;;;;4889736;29;20179;-84
2023/03/02 08:14:49;;;;;;;0.32;0.32;;;18.30;38.90;;;;;;4892543;29;20558;-84
2023/03/02 08:17:15;;;;;;;0.75;0.30;;;18.40;38.80;;;;;;4891120;29;20183;-85
2023/03/02 08:19:42;;;;;;;0.43;0.30;;;18.40;38.80;;;;;;4891963;29;20178;-84
2023/03/02 08:22:08;;;;;;;1.23;0.40;;;18.40;38.90;;;;;;4891209;29;20221;-85
2023/03/02 08:24:33;;;;;;;0.50;0.47;;;18.40;38.60;;;;;;4906357;29;20170;-84
2023/03/02 08:27:03;;;;;;;0.30;0.30;;;18.40;38.60;;;;;;4891573;29;20197;-84
2023/03/02 08:29:30;;;;;;;0.75;0.57;;;18.50;38.40;;;;;;4892086;29;20193;-85
2023/03/02 08:31:57;;;;;;;0.80;0.30;;;18.40;38.60;;;;;;4905501;29;20205;-84
2023/03/02 08:34:25;;;;;;;0.60;0.40;;;18.40;38.80;;;;;;4905365;29;20151;-84
2023/03/02 08:36:51;;;;;;;0.40;0.40;;;18.40;38.70;;;;;;4888082;29;20588;-84
2023/03/02 08:39:21;;;;;;;0.20;0.20;;;18.40;38.60;;;;;;4904029;29;20178;-84
2023/03/02 08:41:53;;;;;;;0.13;0.13;;;18.40;38.50;;;;;;4903762;29;20697;-83
2023/03/02 08:44:26;;;;;;;0.40;0.32;;;18.50;38.50;;;;;;4890295;29;20351;-84
2023/03/02 08:46:56;;;;;;;1.10;0.35;;;18.50;38.30;;;;;;4905033;29;20617;-85
2023/03/02 08:49:22;;;;;;;0.65;0.30;;;18.50;38.40;;;;;;4888860;29;20191;-84
2023/03/02 08:51:52;;;;;;;0.30;0.30;;;18.60;38.50;;;;;;4902041;29;20562;-84
2023/03/02 08:54:19;;;;;;;2.10;0.30;;;18.60;38.50;;;;;;4918219;29;20223;-83
2023/03/02 08:56:45;;;;;;;0.68;0.40;;;18.50;38.60;;;;;;4902433;29;20158;-85
2023/03/02 08:59:11;;;;;;;0.20;0.20;;;18.50;38.70;;;;;;4903396;29;20147;-83
2023/03/02 09:01:37;;;;;;;0.52;0.28;;;18.40;38.70;;;;;;4903266;29;20163;-84
2023/03/02 09:04:05;;;;;;;0.50;0.30;;;18.50;38.70;;;;;;4888465;29;20174;-84
2023/03/02 09:06:32;;;;;;;0.32;0.30;;;18.50;38.80;;;;;;4903141;29;20158;-83
2023/03/02 09:09:01;;;;;;;0.88;0.30;;;18.50;38.90;;;;;;4902513;29;20163;-83
2023/03/02 09:11:27;;;;;;;0.22;0.20;;;18.50;38.50;;;;;;4917120;29;20322;-83
2023/03/02 09:13:53;;;;;;;0.20;0.20;;;18.60;38.60;;;;;;4901053;29;20195;-83
2023/03/02 09:16:20;;;;;;;0.40;0.30;;;18.70;38.00;;;;;;4901186;29;20525;-83
2023/03/02 09:18:46;;;;;;;0.30;0.20;;;18.70;38.10;;;;;;4885454;29;20261;-84
2023/03/02 09:21:12;;;;;;;0.20;0.20;;;18.80;38.00;;;;;;4886943;29;20538;-83
2023/03/02 09:23:38;;;;;;;0.77;0.30;;;18.70;38.10;;;;;;4901517;29;20175;-84
2023/03/02 09:26:04;;;;;;;0.30;0.30;;;18.70;38.00;;;;;;4903108;29;20163;-83
2023/03/02 09:28:30;;;;;;;0.20;0.20;;;18.70;38.20;;;;;;4903228;29;20277;-84
2023/03/02 09:30:57;;;;;;;0.40;0.20;;;18.70;38.30;;;;;;4901965;29;20274;-84
2023/03/02 09:33:23;;;;;;;0.28;0.20;;;18.70;38.20;;;;;;4903147;29;20578;-83
2023/03/02 09:35:49;;;;;;;0.82;0.25;;;18.70;38.00;;;;;;4918019;29;20163;-84
2023/03/02 09:38:15;;;;;;;0.57;0.30;;;18.80;37.90;;;;;;4905113;29;20166;-84
2023/03/02 09:40:55;;;;;;;0.20;0.20;;;18.80;38.20;;;;;;4889992;29;20175;-84
2023/03/02 09:43:52;;;;;;;0.30;0.30;;;18.70;38.30;;;;;;4921843;29;20166;-84
2023/03/02 09:46:52;;;;;;;0.20;0.20;;;18.80;38.00;;;;;;4921530;29;20338;-84
2023/03/02 09:49:52;;;;;;;1.83;0.30;;;18.70;38.30;;;;;;4920801;29;20179;-84
2023/03/02 09:52:34;;;;;;;0.47;0.20;;;18.70;38.10;;;;;;4922563;29;20517;-83
2023/03/02 09:58:17;;;;;;;0.68;0.38;;;18.80;38.30;;;;;;4894305;29;20329;-84
2023/03/02 10:00:43;;;;;;;0.20;0.20;;;18.70;38.00;;;;;;4855204;29;20272;-81
2023/03/02 10:03:18;;;;;;;0.30;0.20;;;18.80;37.90;;;;;;4838650;29;20196;-81
2023/03/02 10:05:47;;;;;;;0.57;0.28;;;18.80;38.20;;;;;;4875288;29;20593;-83
2023/03/02 10:08:19;;;;;;;0.43;0.30;;;18.80;38.50;;;;;;4854930;29;20302;-82
2023/03/02 10:11:13;;;;;;;6.07;0.35;;;18.70;38.70;;;;;;4807688;29;20217;-83
2023/03/02 10:13:45;;;;;;;2.58;0.40;;;18.70;38.40;;;;;;4807977;29;20186;-83
2023/03/02 10:16:57;;;;;;;;;;;;;;;;;;;;;
2023/03/02 10:19:49;;;;;;;0.40;0.30;;;18.80;38.60;;;;;;4809142;29;20276;-85
2023/03/02 10:22:29;;;;;;;0.40;0.20;;;18.80;38.60;;;;;;4806335;29;20213;-85
2023/03/02 10:25:20;;;;;;;0.43;0.22;;;18.90;38.20;;;;;;4807220;29;20583;-85
2023/03/02 10:28:10;;;;;;;0.63;0.30;;;18.80;38.60;;;;;;4852310;29;20260;-87
2023/03/02 10:30:56;;;;;;;;;;;;;;;;;;;;;
2023/03/02 10:33:58;;;;;;;1.60;0.22;;;18.80;38.60;;;;;;4840656;29;20216;-85
2023/03/02 10:36:29;;;;;;;0.77;0.30;;;18.90;38.20;;;;;;4836581;29;20181;-86
2023/03/02 10:39:04;;;;;;;0.73;0.30;;;18.90;38.90;;;;;;4849036;29;20184;-87
2023/03/02 10:41:57;;;;;;;0.50;0.30;;;18.90;38.20;;;;;;4855421;29;20236;-86
2023/03/02 10:44:26;;;;;;;1.13;0.30;;;18.90;38.00;;;;;;4851008;29;20178;-87
2023/03/02 10:46:53;;;;;;;0.52;0.30;;;18.90;38.30;;;;;;4820278;29;20288;-86
2023/03/02 10:49:30;;;;;;;1.10;0.20;;;18.90;38.20;;;;;;4829586;29;20200;-86
2023/03/02 10:52:10;;;;;;;0.30;0.30;;;18.90;38.20;;;;;;4851963;29;20257;-86
2023/03/02 10:54:36;;;;;;;0.82;0.45;;;18.90;38.20;;;;;;4829773;29;20205;-86
2023/03/02 10:57:24;;;;;;;0.55;0.22;;;18.80;38.00;;;;;;4815827;29;20186;-86
2023/03/02 11:00:00;;;;;;;0.47;0.30;;;18.80;38.20;;;;;;4820981;29;20194;-86
2023/03/02 11:02:28;;;;;;;1.55;0.32;;;18.90;37.90;;;;;;4818895;29;20245;-86
2023/03/02 11:05:21;;;;;;;1.35;0.20;;;18.90;38.20;;;;;;4818256;29;20186;-86
2023/03/02 11:07:53;;;;;;;0.55;0.20;;;18.80;37.80;;;;;;4823882;29;20186;-86
2023/03/02 11:10:23;;;;;;;0.98;0.35;;;18.90;37.90;;;;;;4828640;29;20208;-85
2023/03/02 11:12:50;;;;;;;0.30;0.30;;;18.90;38.20;;;;;;4850899;29;20184;-86
2023/03/02 11:15:33;;;;;;;0.60;0.30;;;18.80;38.00;;;;;;4840888;29;20180;-86
2023/03/02 11:18:22;;;;;;;0.55;0.20;;;18.80;38.20;;;;;;4858558;29;20175;-86
2023/03/02 11:20:54;;;;;;;1.55;0.30;;;18.80;38.20;;;;;;4847337;29;20206;-86
2023/03/02 11:23:41;;;;;;;2.15;0.40;;;18.80;38.60;;;;;;4842913;29;20227;-86
2023/03/02 11:26:24;;;;;;;0.93;0.30;;;18.70;38.60;;;;;;4875604;29;20179;-85
2023/03/02 11:31:55;;;;;;;0.40;0.20;;;18.80;38.30;;;;;;4777065;30;20223;-85
2023/03/02 11:34:48;;;;;;;0.20;0.20;;;18.80;37.90;;;;;;4761044;30;20231;-86
2023/03/02 11:37:23;;;;;;;1.40;0.30;;;18.80;37.70;;;;;;4756749;30;20227;-85
2023/03/02 11:40:31;;;;;;;1.35;0.30;;;18.80;37.90;;;;;;4788890;30;20212;-84
2023/03/02 11:43:01;;;;;;;1.60;0.20;;;18.80;37.70;;;;;;4790248;29;20196;-85
2023/03/02 11:45:37;;;;;;;0.40;0.30;;;18.80;37.90;;;;;;4778663;30;20207;-85
2023/03/02 11:48:26;;;;;;;0.77;0.30;;;18.80;37.80;;;;;;4757480;30;20197;-85
2023/03/02 11:51:01;;;;;;;0.82;0.30;;;18.80;37.70;;;;;;4742945;30;20237;-85
2023/03/02 11:53:45;;;;;;;0.40;0.20;;;18.80;37.90;;;;;;4751964;30;20351;-85
2023/03/02 11:56:14;;;;;;;0.70;0.30;;;18.80;37.60;;;;;;4770323;30;20203;-85
2023/03/02 11:58:53;;;;;;;1.60;0.30;;;18.80;37.70;;;;;;4762870;30;20203;-84
2023/03/02 12:01:21;;;;;;;2.58;0.77;;;18.80;37.40;;;;;;4765039;30;20584;-85
2023/03/02 12:03:47;;;;;;;1.17;0.38;;;18.90;37.30;;;;;;4783325;30;20248;-85
2023/03/02 12:06:34;;;;;;;1.00;0.30;;;18.90;37.10;;;;;;4799241;29;20199;-85
2023/03/02 12:09:34;;;;;;;0.50;0.30;;;18.80;37.30;;;;;;4831252;29;20250;-85
2023/03/02 12:12:31;;;;;;;1.02;0.20;;;18.80;36.90;;;;;;4815855;29;20228;-84
2023/03/02 12:14:59;;;;;;;0.32;0.25;;;18.80;36.80;;;;;;4816827;29;20175;-84
2023/03/02 12:17:33;;;;;;;0.75;0.28;;;18.80;37.20;;;;;;4812695;29;20677;-85
2023/03/02 12:20:25;;;;;;;1.33;0.40;;;18.80;37.10;;;;;;4813100;29;20190;-85
2023/03/02 12:23:19;;;;;;;0.50;0.35;;;18.70;37.50;;;;;;4814515;29;20249;-85
2023/03/02 12:25:50;;;;;;;2.35;0.50;;;18.80;37.40;;;;;;4816203;29;20177;-84
2023/03/02 12:28:28;;;;;;;3.25;0.40;;;18.80;37.00;;;;;;4869528;29;20637;-85
2023/03/02 12:31:09;;;;;;;1.45;0.32;;;18.80;37.30;;;;;;4853857;29;20318;-85
2023/03/02 12:33:46;;;;;;;2.60;0.30;;;18.80;37.20;;;;;;4850592;29;20248;-84
2023/03/02 12:36:32;;;;;;;4.57;0.63;;;18.80;36.90;;;;;;4852606;29;20185;-85
2023/03/02 12:39:17;;;;;;;1.20;0.45;;;18.80;36.80;;;;;;4851669;29;20165;-85
2023/03/02 12:42:21;;;;;;;2.40;0.40;;;18.80;36.90;;;;;;4830783;29;20195;-85
2023/03/02 12:45:12;;;;;;;4.15;0.73;;;18.80;37.10;;;;;;4828646;29;20208;-85
2023/03/02 12:47:39;;;;;;;7.00;0.90;;;18.80;36.90;;;;;;4843692;29;20185;-84
2023/03/02 12:50:19;;;;;;;2.70;0.43;;;18.80;36.80;;;;;;4801467;29;20195;-85
2023/03/02 12:52:44;;;;;;;4.90;0.60;;;18.80;36.60;;;;;;4824368;29;20592;-85
2023/03/02 12:55:23;;;;;;;4.30;0.57;;;18.80;36.60;;;;;;4811065;29;20185;-84
2023/03/02 12:58:08;;;;;;;7.13;0.60;;;18.90;36.60;;;;;;4810479;29;20190;-84
2023/03/02 13:00:51;;;;;;;3.13;0.60;;;18.90;36.40;;;;;;4851148;29;20191;-84
2023/03/02 13:03:20;;;;;;;2.88;0.50;;;18.90;36.40;;;;;;4852429;29;20200;-85
2023/03/02 13:05:59;;;;;;;3.75;0.50;;;18.80;36.50;;;;;;4837106;29;20637;-85
2023/03/02 13:08:33;;;;;;;2.58;0.47;;;18.80;36.60;;;;;;4820040;29;20280;-85
2023/03/02 13:11:05;;;;;;;4.32;0.50;;;18.90;36.30;;;;;;4819678;29;20221;-85
2023/03/02 13:13:41;;;;;;;5.68;0.73;;;18.90;36.00;;;;;;4814936;29;20195;-85
2023/03/02 13:16:28;;;;;;;5.90;0.68;;;19.00;36.30;;;;;;4801807;29;20665;-85
2023/03/02 13:19:25;;;;;;;5.03;0.50;;;18.90;36.20;;;;;;4777945;30;20810;-85
2023/03/02 13:21:51;;;;;;;3.17;0.68;;;18.90;36.00;;;;;;4776232;29;20196;-83
2023/03/02 13:24:30;;;;;;;4.53;0.80;;;18.90;35.70;;;;;;4767117;30;20261;-86
2023/03/02 13:27:02;;;;;;;8.98;0.63;;;18.90;36.10;;;;;;4760042;30;20642;-85
2023/03/02 13:29:33;;;;;;;3.75;0.50;;;18.90;35.70;;;;;;4763271;30;20311;-84
2023/03/02 13:32:18;;;;;;;4.70;0.65;;;18.90;35.90;;;;;;4844884;29;20225;-85
2023/03/02 13:34:51;;;;;;;3.92;0.82;;;18.90;35.70;;;;;;4816932;29;20269;-85
2023/03/02 13:37:31;;;;;;;67.93;5.47;;;18.90;35.70;;;;;;4827598;29;20182;-85